sensor_id;sensor_type;location;lat;lon;timestamp;P1;durP1;ratioP1;P2;durP2;ratioP2
39256;SDS011;67272;48.066;11.038;2023-06-26T00:02:05;6.30;;;5.70;;
39256;SDS011;67272;48.066;11.038;2023-06-26T00:04:32;6.20;;;5.60;;
39256;SDS011;67272;48.066;11.038;2023-06-26T00:06:58;6.32;;;5.53;;
39256;SDS011;67272;48.066;11.038;2023-06-26T00:09:25;6.32;;;5.72;;
39256;SDS011;67272;48.066;11.038;2023-06-26T00:11:51;6.38;;;5.78;;
39256;SDS011;67272;48.066;11.038;2023-06-26T00:14:17;5.80;;;5.20;;
39256;SDS011;67272;48.066;11.038;2023-06-26T00:16:46;5.93;;;5.40;;
39256;SDS011;67272;48.066;11.038;2023-06-26T00:19:15;6.65;;;5.88;;
39256;SDS011;67272;48.066;11.038;2023-06-26T00:21:44;7.03;;;5.97;;
39256;SDS011;67272;48.066;11.038;2023-06-26T00:24:16;6.05;;;5.45;;
39256;SDS011;67272;48.066;11.038;2023-06-26T00:26:43;6.65;;;6.05;;
39256;SDS011;67272;48.066;11.038;2023-06-26T00:29:09;8.70;;;5.20;;
39256;SDS011;67272;48.066;11.038;2023-06-26T00:31:36;6.53;;;5.90;;
39256;SDS011;67272;48.066;11.038;2023-06-26T00:34:14;6.05;;;5.35;;
39256;SDS011;67272;48.066;11.038;2023-06-26T00:36:41;5.93;;;5.32;;
39256;SDS011;67272;48.066;11.038;2023-06-26T00:39:10;6.65;;;5.68;;
39256;SDS011;67272;48.066;11.038;2023-06-26T00:41:42;7.53;;;5.80;;
39256;SDS011;67272;48.066;11.038;2023-06-26T00:44:10;6.03;;;5.43;;
39256;SDS011;67272;48.066;11.038;2023-06-26T00:46:39;6.53;;;5.93;;
39256;SDS011;67272;48.066;11.038;2023-06-26T00:49:06;7.32;;;5.85;;
39256;SDS011;67272;48.066;11.038;2023-06-26T00:51:35;6.22;;;5.63;;
39256;SDS011;67272;48.066;11.038;2023-06-26T00:54:07;6.60;;;5.90;;
39256;SDS011;67272;48.066;11.038;2023-06-26T00:56:34;6.13;;;5.53;;
39256;SDS011;67272;48.066;11.038;2023-06-26T00:59:03;6.90;;;6.20;;
39256;SDS011;67272;48.066;11.038;2023-06-26T01:01:33;6.28;;;5.68;;
39256;SDS011;67272;48.066;11.038;2023-06-26T01:03:59;6.38;;;5.70;;
39256;SDS011;67272;48.066;11.038;2023-06-26T01:06:25;7.13;;;6.43;;
39256;SDS011;67272;48.066;11.038;2023-06-26T01:08:57;5.88;;;5.30;;
39256;SDS011;67272;48.066;11.038;2023-06-26T01:11:24;5.93;;;5.43;;
39256;SDS011;67272;48.066;11.038;2023-06-26T01:13:50;6.13;;;5.53;;
39256;SDS011;67272;48.066;11.038;2023-06-26T01:16:18;9.07;;;6.35;;
39256;SDS011;67272;48.066;11.038;2023-06-26T01:18:48;6.40;;;5.80;;
39256;SDS011;67272;48.066;11.038;2023-06-26T01:21:14;5.95;;;5.35;;
39256;SDS011;67272;48.066;11.038;2023-06-26T01:26:32;6.30;;;5.32;;
39256;SDS011;67272;48.066;11.038;2023-06-26T01:29:04;5.97;;;5.38;;
39256;SDS011;67272;48.066;11.038;2023-06-26T01:31:32;6.93;;;6.07;;
39256;SDS011;67272;48.066;11.038;2023-06-26T01:34:00;6.63;;;6.03;;
39256;SDS011;67272;48.066;11.038;2023-06-26T01:36:27;6.50;;;5.90;;
39256;SDS011;67272;48.066;11.038;2023-06-26T01:38:53;6.55;;;5.95;;
39256;SDS011;67272;48.066;11.038;2023-06-26T01:41:20;6.13;;;5.53;;
39256;SDS011;67272;48.066;11.038;2023-06-26T01:46:23;6.13;;;5.53;;
39256;SDS011;67272;48.066;11.038;2023-06-26T01:49:03;6.88;;;6.28;;
39256;SDS011;67272;48.066;11.038;2023-06-26T01:51:33;6.10;;;5.60;;
39256;SDS011;67272;48.066;11.038;2023-06-26T01:54:05;6.07;;;5.47;;
39256;SDS011;67272;48.066;11.038;2023-06-26T01:56:33;6.65;;;5.97;;
39256;SDS011;67272;48.066;11.038;2023-06-26T01:59:01;6.25;;;5.70;;
39256;SDS011;67272;48.066;11.038;2023-06-26T02:01:28;6.78;;;6.07;;
39256;SDS011;67272;48.066;11.038;2023-06-26T02:03:58;6.72;;;6.13;;
39256;SDS011;67272;48.066;11.038;2023-06-26T02:06:24;6.55;;;5.93;;
39256;SDS011;67272;48.066;11.038;2023-06-26T02:08:50;6.40;;;5.80;;
39256;SDS011;67272;48.066;11.038;2023-06-26T02:11:17;6.85;;;6.22;;
39256;SDS011;67272;48.066;11.038;2023-06-26T02:13:43;6.55;;;5.95;;
39256;SDS011;67272;48.066;11.038;2023-06-26T02:16:11;6.85;;;6.15;;
39256;SDS011;67272;48.066;11.038;2023-06-26T02:18:37;6.88;;;6.13;;
39256;SDS011;67272;48.066;11.038;2023-06-26T02:21:03;6.50;;;5.90;;
39256;SDS011;67272;48.066;11.038;2023-06-26T02:23:32;7.45;;;6.75;;
39256;SDS011;67272;48.066;11.038;2023-06-26T02:25:58;7.05;;;6.35;;
39256;SDS011;67272;48.066;11.038;2023-06-26T02:28:28;6.90;;;6.30;;
39256;SDS011;67272;48.066;11.038;2023-06-26T02:30:56;6.35;;;5.65;;
39256;SDS011;67272;48.066;11.038;2023-06-26T02:33:23;7.22;;;6.45;;
39256;SDS011;67272;48.066;11.038;2023-06-26T02:35:49;7.18;;;6.47;;
39256;SDS011;67272;48.066;11.038;2023-06-26T02:38:16;6.63;;;6.00;;
39256;SDS011;67272;48.066;11.038;2023-06-26T02:40:42;6.88;;;6.18;;
39256;SDS011;67272;48.066;11.038;2023-06-26T02:43:10;9.82;;;6.80;;
39256;SDS011;67272;48.066;11.038;2023-06-26T02:45:36;6.80;;;6.00;;
39256;SDS011;67272;48.066;11.038;2023-06-26T02:48:03;6.88;;;6.22;;
39256;SDS011;67272;48.066;11.038;2023-06-26T02:50:31;6.25;;;5.57;;
39256;SDS011;67272;48.066;11.038;2023-06-26T02:53:11;6.90;;;6.20;;
39256;SDS011;67272;48.066;11.038;2023-06-26T02:55:44;7.07;;;6.38;;
39256;SDS011;67272;48.066;11.038;2023-06-26T02:58:12;6.97;;;6.28;;
39256;SDS011;67272;48.066;11.038;2023-06-26T03:00:39;7.85;;;5.97;;
39256;SDS011;67272;48.066;11.038;2023-06-26T03:03:09;7.60;;;6.80;;
39256;SDS011;67272;48.066;11.038;2023-06-26T03:05:36;7.75;;;6.75;;
39256;SDS011;67272;48.066;11.038;2023-06-26T03:08:02;7.00;;;6.10;;
39256;SDS011;67272;48.066;11.038;2023-06-26T03:10:32;6.53;;;5.93;;
39256;SDS011;67272;48.066;11.038;2023-06-26T03:13:02;7.38;;;6.68;;
39256;SDS011;67272;48.066;11.038;2023-06-26T03:15:28;7.45;;;6.13;;
39256;SDS011;67272;48.066;11.038;2023-06-26T03:17:57;7.25;;;6.53;;
39256;SDS011;67272;48.066;11.038;2023-06-26T03:20:29;7.35;;;6.57;;
39256;SDS011;67272;48.066;11.038;2023-06-26T03:22:59;7.03;;;6.35;;
39256;SDS011;67272;48.066;11.038;2023-06-26T03:25:25;7.25;;;6.55;;
39256;SDS011;67272;48.066;11.038;2023-06-26T03:28:03;7.65;;;6.95;;
39256;SDS011;67272;48.066;11.038;2023-06-26T03:30:39;7.45;;;6.65;;
39256;SDS011;67272;48.066;11.038;2023-06-26T03:33:05;7.03;;;6.32;;
39256;SDS011;67272;48.066;11.038;2023-06-26T03:35:32;8.20;;;7.40;;
39256;SDS011;67272;48.066;11.038;2023-06-26T03:37:58;7.85;;;6.97;;
39256;SDS011;67272;48.066;11.038;2023-06-26T03:40:28;6.88;;;6.28;;
39256;SDS011;67272;48.066;11.038;2023-06-26T03:42:54;7.28;;;6.57;;
39256;SDS011;67272;48.066;11.038;2023-06-26T03:45:21;7.32;;;6.63;;
39256;SDS011;67272;48.066;11.038;2023-06-26T03:47:48;7.32;;;6.63;;
39256;SDS011;67272;48.066;11.038;2023-06-26T03:50:15;7.25;;;6.55;;
39256;SDS011;67272;48.066;11.038;2023-06-26T03:52:42;7.82;;;7.03;;
39256;SDS011;67272;48.066;11.038;2023-06-26T03:55:11;7.68;;;6.90;;
39256;SDS011;67272;48.066;11.038;2023-06-26T03:57:41;7.70;;;6.90;;
39256;SDS011;67272;48.066;11.038;2023-06-26T04:00:08;6.90;;;6.30;;
39256;SDS011;67272;48.066;11.038;2023-06-26T04:02:40;7.75;;;6.72;;
39256;SDS011;67272;48.066;11.038;2023-06-26T04:05:07;7.65;;;6.88;;
39256;SDS011;67272;48.066;11.038;2023-06-26T04:07:34;7.28;;;6.57;;
39256;SDS011;67272;48.066;11.038;2023-06-26T04:10:04;7.85;;;7.15;;
39256;SDS011;67272;48.066;11.038;2023-06-26T04:12:32;7.18;;;6.47;;
39256;SDS011;67272;48.066;11.038;2023-06-26T04:14:58;7.43;;;6.72;;
39256;SDS011;67272;48.066;11.038;2023-06-26T04:17:24;7.40;;;6.70;;
39256;SDS011;67272;48.066;11.038;2023-06-26T04:19:51;7.18;;;6.50;;
39256;SDS011;67272;48.066;11.038;2023-06-26T04:22:17;7.28;;;6.57;;
39256;SDS011;67272;48.066;11.038;2023-06-26T04:24:44;6.97;;;6.28;;
39256;SDS011;67272;48.066;11.038;2023-06-26T04:27:11;7.78;;;6.97;;
39256;SDS011;67272;48.066;11.038;2023-06-26T04:29:39;7.55;;;6.85;;
39256;SDS011;67272;48.066;11.038;2023-06-26T04:32:05;7.18;;;6.47;;
39256;SDS011;67272;48.066;11.038;2023-06-26T04:34:34;8.30;;;7.07;;
39256;SDS011;67272;48.066;11.038;2023-06-26T04:37:09;7.50;;;6.70;;
39256;SDS011;67272;48.066;11.038;2023-06-26T04:39:36;10.20;;;7.28;;
39256;SDS011;67272;48.066;11.038;2023-06-26T04:42:04;7.15;;;6.47;;
39256;SDS011;67272;48.066;11.038;2023-06-26T04:44:31;7.45;;;6.75;;
39256;SDS011;67272;48.066;11.038;2023-06-26T04:46:57;7.53;;;6.72;;
39256;SDS011;67272;48.066;11.038;2023-06-26T04:49:29;7.80;;;7.00;;
39256;SDS011;67272;48.066;11.038;2023-06-26T04:52:01;7.68;;;6.97;;
39256;SDS011;67272;48.066;11.038;2023-06-26T04:54:28;7.50;;;6.80;;
39256;SDS011;67272;48.066;11.038;2023-06-26T04:56:54;7.50;;;6.82;;
39256;SDS011;67272;48.066;11.038;2023-06-26T04:59:20;10.07;;;7.25;;
39256;SDS011;67272;48.066;11.038;2023-06-26T05:01:47;7.95;;;7.13;;
39256;SDS011;67272;48.066;11.038;2023-06-26T05:04:14;7.03;;;6.35;;
39256;SDS011;67272;48.066;11.038;2023-06-26T05:06:40;7.70;;;6.90;;
39256;SDS011;67272;48.066;11.038;2023-06-26T05:09:07;7.78;;;6.97;;
39256;SDS011;67272;48.066;11.038;2023-06-26T05:11:33;7.30;;;6.60;;
39256;SDS011;67272;48.066;11.038;2023-06-26T05:13:59;7.65;;;6.38;;
39256;SDS011;67272;48.066;11.038;2023-06-26T05:16:26;7.50;;;6.80;;
39256;SDS011;67272;48.066;11.038;2023-06-26T05:18:52;7.63;;;6.93;;
39256;SDS011;67272;48.066;11.038;2023-06-26T05:21:19;8.00;;;7.30;;
39256;SDS011;67272;48.066;11.038;2023-06-26T05:23:58;7.47;;;6.78;;
39256;SDS011;67272;48.066;11.038;2023-06-26T05:26:25;7.47;;;6.78;;
39256;SDS011;67272;48.066;11.038;2023-06-26T05:28:55;7.45;;;6.75;;
39256;SDS011;67272;48.066;11.038;2023-06-26T05:31:24;7.22;;;6.45;;
39256;SDS011;67272;48.066;11.038;2023-06-26T05:33:50;7.55;;;6.85;;
39256;SDS011;67272;48.066;11.038;2023-06-26T05:36:18;7.50;;;6.82;;
39256;SDS011;67272;48.066;11.038;2023-06-26T05:38:46;7.40;;;6.70;;
39256;SDS011;67272;48.066;11.038;2023-06-26T05:41:14;7.32;;;6.53;;
39256;SDS011;67272;48.066;11.038;2023-06-26T05:43:40;7.57;;;6.88;;
39256;SDS011;67272;48.066;11.038;2023-06-26T05:46:06;7.70;;;7.00;;
39256;SDS011;67272;48.066;11.038;2023-06-26T05:48:33;7.63;;;6.93;;
39256;SDS011;67272;48.066;11.038;2023-06-26T05:50:59;7.57;;;6.80;;
39256;SDS011;67272;48.066;11.038;2023-06-26T05:53:26;7.35;;;6.65;;
39256;SDS011;67272;48.066;11.038;2023-06-26T05:55:52;7.07;;;6.38;;
39256;SDS011;67272;48.066;11.038;2023-06-26T05:58:19;6.45;;;5.85;;
39256;SDS011;67272;48.066;11.038;2023-06-26T06:00:46;6.43;;;5.85;;
39256;SDS011;67272;48.066;11.038;2023-06-26T06:03:12;7.90;;;6.50;;
39256;SDS011;67272;48.066;11.038;2023-06-26T06:05:38;6.68;;;6.07;;
39256;SDS011;67272;48.066;11.038;2023-06-26T06:08:05;6.90;;;6.20;;
39256;SDS011;67272;48.066;11.038;2023-06-26T06:10:31;8.18;;;6.57;;
39256;SDS011;67272;48.066;11.038;2023-06-26T06:13:00;6.90;;;6.30;;
39256;SDS011;67272;48.066;11.038;2023-06-26T06:15:27;7.07;;;6.38;;
39256;SDS011;67272;48.066;11.038;2023-06-26T06:17:53;7.35;;;6.65;;
39256;SDS011;67272;48.066;11.038;2023-06-26T06:20:22;6.80;;;6.20;;
39256;SDS011;67272;48.066;11.038;2023-06-26T06:22:49;6.93;;;6.32;;
39256;SDS011;67272;48.066;11.038;2023-06-26T06:25:15;7.30;;;6.28;;
39256;SDS011;67272;48.066;11.038;2023-06-26T06:27:41;7.88;;;7.07;;
39256;SDS011;67272;48.066;11.038;2023-06-26T06:30:08;7.32;;;6.65;;
39256;SDS011;67272;48.066;11.038;2023-06-26T06:32:35;7.68;;;6.97;;
39256;SDS011;67272;48.066;11.038;2023-06-26T06:35:01;6.95;;;6.35;;
39256;SDS011;67272;48.066;11.038;2023-06-26T06:37:34;7.95;;;6.80;;
39256;SDS011;67272;48.066;11.038;2023-06-26T06:40:00;6.65;;;6.05;;
39256;SDS011;67272;48.066;11.038;2023-06-26T06:42:27;8.25;;;6.93;;
39256;SDS011;67272;48.066;11.038;2023-06-26T06:44:53;6.38;;;5.78;;
39256;SDS011;67272;48.066;11.038;2023-06-26T06:47:19;7.00;;;6.00;;
39256;SDS011;67272;48.066;11.038;2023-06-26T06:49:46;6.35;;;5.85;;
39256;SDS011;67272;48.066;11.038;2023-06-26T06:52:12;7.72;;;6.32;;
39256;SDS011;67272;48.066;11.038;2023-06-26T06:54:54;6.28;;;5.68;;
39256;SDS011;67272;48.066;11.038;2023-06-26T06:57:21;6.72;;;5.93;;
39256;SDS011;67272;48.066;11.038;2023-06-26T06:59:47;6.20;;;5.70;;
39256;SDS011;67272;48.066;11.038;2023-06-26T07:02:15;5.95;;;5.40;;
39256;SDS011;67272;48.066;11.038;2023-06-26T07:04:42;6.00;;;5.50;;
39256;SDS011;67272;48.066;11.038;2023-06-26T07:07:08;5.95;;;5.45;;
39256;SDS011;67272;48.066;11.038;2023-06-26T07:09:35;7.13;;;6.43;;
39256;SDS011;67272;48.066;11.038;2023-06-26T07:12:01;6.82;;;6.13;;
39256;SDS011;67272;48.066;11.038;2023-06-26T07:14:28;8.30;;;6.03;;
39256;SDS011;67272;48.066;11.038;2023-06-26T07:16:54;6.25;;;5.75;;
39256;SDS011;67272;48.066;11.038;2023-06-26T07:19:20;6.28;;;5.68;;
39256;SDS011;67272;48.066;11.038;2023-06-26T07:21:46;6.15;;;5.55;;
39256;SDS011;67272;48.066;11.038;2023-06-26T07:24:12;6.22;;;5.63;;
39256;SDS011;67272;48.066;11.038;2023-06-26T07:26:39;6.22;;;5.63;;
39256;SDS011;67272;48.066;11.038;2023-06-26T07:29:05;6.03;;;5.45;;
39256;SDS011;67272;48.066;11.038;2023-06-26T07:31:32;5.95;;;5.45;;
39256;SDS011;67272;48.066;11.038;2023-06-26T07:33:58;6.72;;;6.15;;
39256;SDS011;67272;48.066;11.038;2023-06-26T07:36:24;5.38;;;4.88;;
39256;SDS011;67272;48.066;11.038;2023-06-26T07:38:51;6.60;;;5.80;;
39256;SDS011;67272;48.066;11.038;2023-06-26T07:41:17;5.65;;;5.15;;
39256;SDS011;67272;48.066;11.038;2023-06-26T07:43:43;6.57;;;5.88;;
39256;SDS011;67272;48.066;11.038;2023-06-26T07:46:09;5.47;;;4.97;;
39256;SDS011;67272;48.066;11.038;2023-06-26T07:48:36;6.88;;;6.18;;
39256;SDS011;67272;48.066;11.038;2023-06-26T07:51:02;6.20;;;5.70;;
39256;SDS011;67272;48.066;11.038;2023-06-26T07:53:28;6.63;;;5.88;;
39256;SDS011;67272;48.066;11.038;2023-06-26T07:55:54;7.72;;;5.90;;
39256;SDS011;67272;48.066;11.038;2023-06-26T07:58:21;6.20;;;5.60;;
39256;SDS011;67272;48.066;11.038;2023-06-26T08:00:47;6.40;;;5.80;;
39256;SDS011;67272;48.066;11.038;2023-06-26T08:03:13;6.18;;;5.57;;
39256;SDS011;67272;48.066;11.038;2023-06-26T08:05:40;6.22;;;5.63;;
39256;SDS011;67272;48.066;11.038;2023-06-26T08:08:06;6.45;;;5.85;;
39256;SDS011;67272;48.066;11.038;2023-06-26T08:10:32;6.43;;;5.93;;
39256;SDS011;67272;48.066;11.038;2023-06-26T08:12:59;6.55;;;5.65;;
39256;SDS011;67272;48.066;11.038;2023-06-26T08:15:31;5.68;;;5.18;;
39256;SDS011;67272;48.066;11.038;2023-06-26T08:17:58;6.55;;;5.82;;
39256;SDS011;67272;48.066;11.038;2023-06-26T08:20:24;5.50;;;5.00;;
39256;SDS011;67272;48.066;11.038;2023-06-26T08:22:50;5.65;;;5.15;;
39256;SDS011;67272;48.066;11.038;2023-06-26T08:25:18;6.43;;;5.47;;
39256;SDS011;67272;48.066;11.038;2023-06-26T08:27:45;5.35;;;4.85;;
39256;SDS011;67272;48.066;11.038;2023-06-26T08:30:11;6.45;;;5.50;;
39256;SDS011;67272;48.066;11.038;2023-06-26T08:32:38;5.60;;;5.15;;
39256;SDS011;67272;48.066;11.038;2023-06-26T08:35:05;5.95;;;5.35;;
39256;SDS011;67272;48.066;11.038;2023-06-26T08:37:32;6.03;;;5.43;;
39256;SDS011;67272;48.066;11.038;2023-06-26T08:39:59;5.80;;;5.30;;
39256;SDS011;67272;48.066;11.038;2023-06-26T08:42:26;5.70;;;5.20;;
39256;SDS011;67272;48.066;11.038;2023-06-26T08:44:52;5.47;;;5.03;;
39256;SDS011;67272;48.066;11.038;2023-06-26T08:47:19;5.90;;;5.40;;
39256;SDS011;67272;48.066;11.038;2023-06-26T08:52:17;5.65;;;5.15;;
39256;SDS011;67272;48.066;11.038;2023-06-26T08:54:45;5.20;;;4.80;;
39256;SDS011;67272;48.066;11.038;2023-06-26T08:57:14;5.75;;;5.25;;
39256;SDS011;67272;48.066;11.038;2023-06-26T08:59:41;6.38;;;5.05;;
39256;SDS011;67272;48.066;11.038;2023-06-26T09:02:08;5.50;;;4.95;;
39256;SDS011;67272;48.066;11.038;2023-06-26T09:04:34;5.47;;;5.07;;
39256;SDS011;67272;48.066;11.038;2023-06-26T09:07:01;5.40;;;4.93;;
39256;SDS011;67272;48.066;11.038;2023-06-26T09:09:27;5.75;;;5.35;;
39256;SDS011;67272;48.066;11.038;2023-06-26T09:11:53;5.38;;;4.90;;
39256;SDS011;67272;48.066;11.038;2023-06-26T09:14:20;5.75;;;4.97;;
39256;SDS011;67272;48.066;11.038;2023-06-26T09:16:47;4.95;;;4.55;;
39256;SDS011;67272;48.066;11.038;2023-06-26T09:19:13;4.78;;;4.45;;
39256;SDS011;67272;48.066;11.038;2023-06-26T09:21:40;6.03;;;5.43;;
39256;SDS011;67272;48.066;11.038;2023-06-26T09:24:07;6.25;;;5.65;;
39256;SDS011;67272;48.066;11.038;2023-06-26T09:26:37;5.70;;;5.30;;
39256;SDS011;67272;48.066;11.038;2023-06-26T09:29:04;5.95;;;5.45;;
39256;SDS011;67272;48.066;11.038;2023-06-26T09:31:39;5.25;;;4.85;;
39256;SDS011;67272;48.066;11.038;2023-06-26T09:34:06;5.13;;;4.72;;
39256;SDS011;67272;48.066;11.038;2023-06-26T09:36:33;6.53;;;5.25;;
39256;SDS011;67272;48.066;11.038;2023-06-26T09:39:01;4.72;;;4.43;;
39256;SDS011;67272;48.066;11.038;2023-06-26T09:41:28;5.30;;;4.82;;
39256;SDS011;67272;48.066;11.038;2023-06-26T09:43:57;5.07;;;4.68;;
39256;SDS011;67272;48.066;11.038;2023-06-26T09:46:28;5.57;;;5.07;;
39256;SDS011;67272;48.066;11.038;2023-06-26T09:49:01;5.32;;;4.93;;
39256;SDS011;67272;48.066;11.038;2023-06-26T09:51:29;5.85;;;5.35;;
39256;SDS011;67272;48.066;11.038;2023-06-26T09:53:56;5.50;;;5.00;;
39256;SDS011;67272;48.066;11.038;2023-06-26T09:56:22;5.55;;;5.05;;
39256;SDS011;67272;48.066;11.038;2023-06-26T09:58:49;5.68;;;5.28;;
39256;SDS011;67272;48.066;11.038;2023-06-26T10:01:16;5.20;;;4.80;;
39256;SDS011;67272;48.066;11.038;2023-06-26T10:03:43;5.45;;;4.95;;
39256;SDS011;67272;48.066;11.038;2023-06-26T10:06:10;5.80;;;5.28;;
39256;SDS011;67272;48.066;11.038;2023-06-26T10:08:38;6.20;;;5.28;;
39256;SDS011;67272;48.066;11.038;2023-06-26T10:11:06;5.85;;;5.45;;
39256;SDS011;67272;48.066;11.038;2023-06-26T10:13:35;5.60;;;5.20;;
39256;SDS011;67272;48.066;11.038;2023-06-26T10:16:05;5.93;;;5.40;;
39256;SDS011;67272;48.066;11.038;2023-06-26T10:18:32;5.55;;;5.10;;
39256;SDS011;67272;48.066;11.038;2023-06-26T10:20:59;6.00;;;5.50;;
39256;SDS011;67272;48.066;11.038;2023-06-26T10:23:28;5.05;;;4.65;;
39256;SDS011;67272;48.066;11.038;2023-06-26T10:25:58;5.80;;;5.30;;
39256;SDS011;67272;48.066;11.038;2023-06-26T10:28:25;5.55;;;5.03;;
39256;SDS011;67272;48.066;11.038;2023-06-26T10:30:52;5.30;;;4.90;;
39256;SDS011;67272;48.066;11.038;2023-06-26T10:33:23;5.88;;;5.03;;
39256;SDS011;67272;48.066;11.038;2023-06-26T10:35:50;5.65;;;5.10;;
39256;SDS011;67272;48.066;11.038;2023-06-26T10:38:22;5.88;;;5.38;;
39256;SDS011;67272;48.066;11.038;2023-06-26T10:41:12;5.50;;;5.00;;
39256;SDS011;67272;48.066;11.038;2023-06-26T10:43:41;5.82;;;5.22;;
39256;SDS011;67272;48.066;11.038;2023-06-26T10:46:09;6.10;;;5.50;;
39256;SDS011;67272;48.066;11.038;2023-06-26T10:48:55;6.00;;;5.50;;
39256;SDS011;67272;48.066;11.038;2023-06-26T10:51:22;5.95;;;5.45;;
39256;SDS011;67272;48.066;11.038;2023-06-26T10:53:55;6.22;;;5.72;;
39256;SDS011;67272;48.066;11.038;2023-06-26T10:59:26;6.40;;;5.90;;
39256;SDS011;67272;48.066;11.038;2023-06-26T11:07:26;6.07;;;5.53;;
39256;SDS011;67272;48.066;11.038;2023-06-26T11:10:02;6.03;;;5.53;;
39256;SDS011;67272;48.066;11.038;2023-06-26T11:12:37;6.25;;;5.75;;
39256;SDS011;67272;48.066;11.038;2023-06-26T11:15:09;6.40;;;5.82;;
39256;SDS011;67272;48.066;11.038;2023-06-26T11:17:36;6.80;;;6.20;;
39256;SDS011;67272;48.066;11.038;2023-06-26T11:20:04;8.07;;;5.85;;
39256;SDS011;67272;48.066;11.038;2023-06-26T11:22:43;6.10;;;5.55;;
39256;SDS011;67272;48.066;11.038;2023-06-26T11:25:10;6.30;;;5.70;;
39256;SDS011;67272;48.066;11.038;2023-06-26T11:27:40;6.00;;;5.50;;
39256;SDS011;67272;48.066;11.038;2023-06-26T11:30:08;5.72;;;5.22;;
39256;SDS011;67272;48.066;11.038;2023-06-26T11:32:38;5.97;;;5.32;;
39256;SDS011;67272;48.066;11.038;2023-06-26T11:35:04;6.30;;;5.80;;
39256;SDS011;67272;48.066;11.038;2023-06-26T11:37:33;6.50;;;6.00;;
39256;SDS011;67272;48.066;11.038;2023-06-26T11:40:15;6.22;;;5.72;;
39256;SDS011;67272;48.066;11.038;2023-06-26T11:42:41;6.07;;;5.57;;
39256;SDS011;67272;48.066;11.038;2023-06-26T11:45:08;6.30;;;5.70;;
39256;SDS011;67272;48.066;11.038;2023-06-26T11:47:38;6.53;;;5.93;;
39256;SDS011;67272;48.066;11.038;2023-06-26T11:50:05;5.75;;;5.25;;
39256;SDS011;67272;48.066;11.038;2023-06-26T11:52:34;5.60;;;5.10;;
39256;SDS011;67272;48.066;11.038;2023-06-26T11:55:00;6.53;;;6.03;;
39256;SDS011;67272;48.066;11.038;2023-06-26T11:57:27;6.70;;;5.63;;
39256;SDS011;67272;48.066;11.038;2023-06-26T11:59:56;6.78;;;6.10;;
39256;SDS011;67272;48.066;11.038;2023-06-26T12:02:25;6.05;;;5.65;;
39256;SDS011;67272;48.066;11.038;2023-06-26T12:04:52;7.30;;;6.60;;
39256;SDS011;67272;48.066;11.038;2023-06-26T12:07:18;6.82;;;6.32;;
39256;SDS011;67272;48.066;11.038;2023-06-26T12:09:45;6.30;;;5.80;;
39256;SDS011;67272;48.066;11.038;2023-06-26T12:12:13;6.70;;;6.10;;
39256;SDS011;67272;48.066;11.038;2023-06-26T12:14:43;6.97;;;6.47;;
39256;SDS011;67272;48.066;11.038;2023-06-26T12:17:10;6.45;;;5.85;;
39256;SDS011;67272;48.066;11.038;2023-06-26T12:19:43;7.30;;;6.80;;
39256;SDS011;67272;48.066;11.038;2023-06-26T12:22:10;6.82;;;6.22;;
39256;SDS011;67272;48.066;11.038;2023-06-26T12:24:39;6.93;;;6.32;;
39256;SDS011;67272;48.066;11.038;2023-06-26T12:27:09;6.85;;;6.15;;
39256;SDS011;67272;48.066;11.038;2023-06-26T12:29:36;7.07;;;6.57;;
39256;SDS011;67272;48.066;11.038;2023-06-26T12:32:02;7.13;;;6.53;;
39256;SDS011;67272;48.066;11.038;2023-06-26T12:34:36;7.38;;;6.78;;
39256;SDS011;67272;48.066;11.038;2023-06-26T12:37:06;8.18;;;6.72;;
39256;SDS011;67272;48.066;11.038;2023-06-26T12:39:49;7.13;;;6.45;;
39256;SDS011;67272;48.066;11.038;2023-06-26T12:42:19;7.07;;;6.38;;
39256;SDS011;67272;48.066;11.038;2023-06-26T12:44:46;7.18;;;6.57;;
39256;SDS011;67272;48.066;11.038;2023-06-26T12:47:16;7.30;;;6.70;;
39256;SDS011;67272;48.066;11.038;2023-06-26T12:49:49;6.50;;;6.00;;
39256;SDS011;67272;48.066;11.038;2023-06-26T12:52:16;7.13;;;6.55;;
39256;SDS011;67272;48.066;11.038;2023-06-26T12:54:53;6.97;;;6.47;;
39256;SDS011;67272;48.066;11.038;2023-06-26T12:57:21;7.05;;;6.55;;
39256;SDS011;67272;48.066;11.038;2023-06-26T12:59:47;7.00;;;6.38;;
39256;SDS011;67272;48.066;11.038;2023-06-26T13:02:14;6.70;;;6.03;;
39256;SDS011;67272;48.066;11.038;2023-06-26T13:04:46;7.15;;;6.55;;
39256;SDS011;67272;48.066;11.038;2023-06-26T13:07:13;7.03;;;6.50;;
39256;SDS011;67272;48.066;11.038;2023-06-26T13:09:42;7.80;;;7.15;;
39256;SDS011;67272;48.066;11.038;2023-06-26T13:12:09;7.18;;;6.50;;
39256;SDS011;67272;48.066;11.038;2023-06-26T13:14:38;6.68;;;6.18;;
39256;SDS011;67272;48.066;11.038;2023-06-26T13:17:04;7.97;;;6.40;;
39256;SDS011;67272;48.066;11.038;2023-06-26T13:19:31;6.68;;;6.18;;
39256;SDS011;67272;48.066;11.038;2023-06-26T13:21:57;7.13;;;6.57;;
39256;SDS011;67272;48.066;11.038;2023-06-26T13:24:23;7.03;;;6.47;;
39256;SDS011;67272;48.066;11.038;2023-06-26T13:26:50;7.28;;;6.65;;
39256;SDS011;67272;48.066;11.038;2023-06-26T13:29:19;7.22;;;6.63;;
39256;SDS011;67272;48.066;11.038;2023-06-26T13:31:45;7.03;;;6.53;;
39256;SDS011;67272;48.066;11.038;2023-06-26T13:37:04;7.28;;;6.72;;
39256;SDS011;67272;48.066;11.038;2023-06-26T13:39:31;7.13;;;6.53;;
39256;SDS011;67272;48.066;11.038;2023-06-26T13:42:04;7.00;;;6.50;;
39256;SDS011;67272;48.066;11.038;2023-06-26T13:44:37;7.75;;;7.15;;
39256;SDS011;67272;48.066;11.038;2023-06-26T13:47:03;7.38;;;6.78;;
39256;SDS011;67272;48.066;11.038;2023-06-26T13:49:36;7.68;;;7.07;;
39256;SDS011;67272;48.066;11.038;2023-06-26T13:52:02;7.22;;;6.72;;
39256;SDS011;67272;48.066;11.038;2023-06-26T13:54:28;7.05;;;6.45;;
39256;SDS011;67272;48.066;11.038;2023-06-26T13:56:55;6.65;;;6.15;;
39256;SDS011;67272;48.066;11.038;2023-06-26T13:59:27;6.93;;;6.43;;
39256;SDS011;67272;48.066;11.038;2023-06-26T14:01:54;7.25;;;6.65;;
39256;SDS011;67272;48.066;11.038;2023-06-26T14:04:26;7.22;;;6.53;;
39256;SDS011;67272;48.066;11.038;2023-06-26T14:06:56;6.65;;;6.15;;
39256;SDS011;67272;48.066;11.038;2023-06-26T14:09:22;7.18;;;6.57;;
39256;SDS011;67272;48.066;11.038;2023-06-26T14:11:51;6.72;;;6.22;;
39256;SDS011;67272;48.066;11.038;2023-06-26T14:14:18;7.25;;;6.60;;
39256;SDS011;67272;48.066;11.038;2023-06-26T14:16:44;6.68;;;6.18;;
39256;SDS011;67272;48.066;11.038;2023-06-26T14:19:14;7.35;;;6.68;;
39256;SDS011;67272;48.066;11.038;2023-06-26T14:21:42;7.07;;;6.40;;
39256;SDS011;67272;48.066;11.038;2023-06-26T14:24:12;7.22;;;6.65;;
39256;SDS011;67272;48.066;11.038;2023-06-26T14:26:38;6.95;;;6.45;;
39256;SDS011;67272;48.066;11.038;2023-06-26T14:29:04;7.15;;;6.55;;
39256;SDS011;67272;48.066;11.038;2023-06-26T14:31:31;7.32;;;6.63;;
39256;SDS011;67272;48.066;11.038;2023-06-26T14:33:57;7.05;;;6.43;;
39256;SDS011;67272;48.066;11.038;2023-06-26T14:36:27;7.00;;;6.47;;
39256;SDS011;67272;48.066;11.038;2023-06-26T14:38:56;7.03;;;6.47;;
39256;SDS011;67272;48.066;11.038;2023-06-26T14:41:26;7.47;;;6.88;;
39256;SDS011;67272;48.066;11.038;2023-06-26T14:43:53;7.40;;;6.80;;
39256;SDS011;67272;48.066;11.038;2023-06-26T14:46:25;7.75;;;7.07;;
39256;SDS011;67272;48.066;11.038;2023-06-26T14:48:55;7.20;;;6.60;;
39256;SDS011;67272;48.066;11.038;2023-06-26T14:51:21;7.00;;;6.40;;
39256;SDS011;67272;48.066;11.038;2023-06-26T14:53:51;6.82;;;6.32;;
39256;SDS011;67272;48.066;11.038;2023-06-26T14:56:17;7.20;;;6.50;;
39256;SDS011;67272;48.066;11.038;2023-06-26T14:58:47;8.38;;;7.13;;